»·PEaware :: N292MC S36-KORS

N292MC :: S36-KORS

FLIGHT INFORMATION

Flight Status: Arrived
Operator: Privately registered:
United States
More flights under this callsign
Pilot: Maurice C. (12314)
Aircraft: Unknown
(KODI)
More flights by this aircraft type
Origin: S36 Norman Grier Field
United States
Destination: KORS Orcas Island
United States
More flights between these airports :: More routes between these airports
Route: VPLSH VPSNO
File this flight plan on PilotEdge
Remarks: ALPHABET CHALLENGE
Altitude:
(Current/Filed)
4,500ft
Speed:
(Current/Filed)
180kts
Departed: 06-May-20 09:19 AM
Arrived: 06-May-20 09:57 AM
Distance/Time
Traveled:
88nm/0:38
Distance/Time
To Go:
Arrived

Flight Plot

Page will automatically refresh every two minutes.

Flight plan parsing failed; only flown route is shown


Map Options




Map Legend


Flown Route
Filed Route
Departure Airport
Arrival Airport
Navaid (VOR, NDB)
Fix

Horizontal Profiles

Position Reports

Time Latitude Longitude Heading Altitude Ground
Speed
06-May-20 09:01 47.341017 -122.103354 261 477ft 0kts
06-May-20 09:02 47.341017 -122.103354 261 477ft 0kts
06-May-20 09:03 47.341017 -122.103354 261 477ft 0kts
06-May-20 09:04 47.341017 -122.103354 261 477ft 0kts
06-May-20 09:05 47.341017 -122.103354 261 477ft 0kts
06-May-20 09:06 47.341017 -122.103354 261 477ft 0kts
06-May-20 09:07 47.341017 -122.103354 261 477ft 0kts
06-May-20 09:08 47.341017 -122.103354 261 477ft 0kts
06-May-20 09:09 47.341017 -122.103354 261 477ft 0kts
06-May-20 09:10 47.341017 -122.103354 261 477ft 0kts
06-May-20 09:11 47.341017 -122.103354 261 477ft 0kts
06-May-20 09:12 47.341017 -122.103358 261 477ft 0kts
06-May-20 09:13 47.341017 -122.103358 261 477ft 0kts
06-May-20 09:14 47.341017 -122.103358 261 477ft 0kts
06-May-20 09:15 47.341182 -122.103770 298 477ft 1kts
06-May-20 09:16 47.341415 -122.104293 308 477ft 0kts
06-May-20 09:17 47.341296 -122.104544 174 477ft 9kts
06-May-20 09:18 47.322867 -122.089295 111 940ft 134kts
06-May-20 09:19 47.339460 -122.043586 17 1655ft 154kts
06-May-20 09:20 47.378085 -122.043681 348 2371ft 149kts
06-May-20 09:21 47.417993 -122.052027 352 2566ft 165kts
06-May-20 09:22 47.459156 -122.057262 352 2869ft 154kts
06-May-20 09:23 47.499656 -122.062055 353 2959ft 163kts
06-May-20 09:24 47.545861 -122.069269 351 2950ft 187kts
06-May-20 09:25 47.592812 -122.076244 352 2948ft 188kts
06-May-20 09:26 47.641068 -122.079432 357 2943ft 190kts
06-May-20 09:27 47.691374 -122.080232 356 2941ft 188kts
06-May-20 09:28 47.741420 -122.081190 357 2932ft 188kts
06-May-20 09:29 47.791460 -122.084710 353 2723ft 193kts
06-May-20 09:30 47.841654 -122.091542 353 2513ft 184kts
06-May-20 09:31 47.889665 -122.095097 356 2512ft 183kts
06-May-20 09:32 47.936860 -122.107063 321 2508ft 181kts
06-May-20 09:33 47.971883 -122.155197 324 2510ft 181kts
06-May-20 09:34 48.012451 -122.195750 324 2501ft 181kts
06-May-20 09:35 48.054246 -122.238022 324 2511ft 181kts
06-May-20 09:36 48.096878 -122.281063 324 2806ft 176kts
06-May-20 09:37 48.132246 -122.316865 324 3352ft 170kts
06-May-20 09:38 48.169654 -122.354789 324 4000ft 167kts
06-May-20 09:39 48.206659 -122.392305 324 4597ft 167kts
06-May-20 09:40 48.242490 -122.428818 323 4567ft 175kts
06-May-20 09:41 48.273565 -122.460206 323 4571ft 173kts
06-May-20 09:42 48.303427 -122.490902 324 4569ft 173kts
06-May-20 09:43 48.334507 -122.522949 322 4559ft 176kts
06-May-20 09:44 48.371390 -122.560500 323 4567ft 174kts
06-May-20 09:45 48.408188 -122.598395 322 4561ft 176kts
06-May-20 09:46 48.444973 -122.635996 321 4382ft 180kts
06-May-20 09:47 48.478263 -122.673531 308 4090ft 180kts
06-May-20 09:48 48.509756 -122.730345 306 4001ft 155kts
06-May-20 09:49 48.538658 -122.783666 307 3984ft 150kts
06-May-20 09:50 48.565247 -122.833324 306 3609ft 152kts
06-May-20 09:51 48.593071 -122.876191 334 3003ft 148kts
06-May-20 09:52 48.629919 -122.891150 348 1977ft 135kts
06-May-20 09:53 48.657896 -122.899823 344 1075ft 80kts
06-May-20 09:54 48.681150 -122.910755 353 470ft 85kts
06-May-20 09:55 48.702748 -122.910632 354 73ft 65kts
06-May-20 09:56 48.706686 -122.909743 94 32ft 9kts
06-May-20 09:57 48.706685 -122.909553 88 32ft 0kts
06-May-20 09:58 48.706685 -122.909553 88 32ft 0kts

Navigation Log

Ident Type
Flight plan parsing failed, navigation log unavailable